createdAt,value
2019-02-28T00:00:57.452Z,24.10
2019-02-28T00:03:27.032Z,25.20
2019-02-28T00:05:55.574Z,24.97
2019-02-28T00:08:24.054Z,24.43
2019-02-28T00:10:52.296Z,24.80
2019-02-28T00:13:21.664Z,24.97
2019-02-28T00:15:50.664Z,25.07
2019-02-28T00:18:18.744Z,24.70
2019-02-28T00:20:46.852Z,25.50
2019-02-28T00:23:14.981Z,25.80
2019-02-28T00:25:43.019Z,26.47
2019-02-28T00:28:11.139Z,25.73
2019-02-28T00:30:40.738Z,26.53
2019-02-28T00:33:09.284Z,26.77
2019-02-28T00:35:37.780Z,26.63
2019-02-28T00:38:05.842Z,27.20
2019-02-28T00:40:34.014Z,27.30
2019-02-28T00:43:02.095Z,26.97
2019-02-28T00:45:30.553Z,26.40
2019-02-28T00:47:58.762Z,28.40
2019-02-28T00:50:27.583Z,28.90
2019-02-28T00:52:56.426Z,27.10
2019-02-28T00:55:25.529Z,28.30
2019-02-28T00:57:55.408Z,29.53
2019-02-28T01:00:23.789Z,31.20
2019-02-28T01:02:53.442Z,30.23
2019-02-28T01:05:21.846Z,28.20
2019-02-28T01:07:49.931Z,30.30
2019-02-28T01:10:20.196Z,28.73
2019-02-28T01:12:53.260Z,30.13
2019-02-28T01:15:22.510Z,30.37
2019-02-28T01:17:51.086Z,30.37
2019-02-28T01:20:19.132Z,30.73
2019-02-28T01:22:47.196Z,31.47
2019-02-28T01:25:15.398Z,31.93
2019-02-28T01:27:43.469Z,33.77
2019-02-28T01:30:13.812Z,33.03
2019-02-28T01:32:41.864Z,33.60
2019-02-28T01:35:10.531Z,32.07
2019-02-28T01:37:38.774Z,32.13
2019-02-28T01:40:07.120Z,33.40
2019-02-28T01:42:36.614Z,32.70
2019-02-28T01:45:07.002Z,33.93
2019-02-28T01:47:36.361Z,35.10
2019-02-28T01:50:05.060Z,34.83
2019-02-28T01:52:33.688Z,35.23
2019-02-28T01:55:01.771Z,33.33
2019-02-28T01:57:29.828Z,34.43
2019-02-28T01:59:58.576Z,35.47
2019-02-28T02:02:27.205Z,35.30
2019-02-28T02:04:55.779Z,36.50
2019-02-28T02:07:24.116Z,35.43
2019-02-28T02:09:52.283Z,35.77
2019-02-28T02:12:20.605Z,36.73
2019-02-28T02:14:50.673Z,36.87
2019-02-28T02:17:37.321Z,37.27
2019-02-28T02:20:26.227Z,39.70
2019-02-28T02:22:55.773Z,38.13
2019-02-28T02:25:23.989Z,37.10
2019-02-28T02:27:53.348Z,37.67
2019-02-28T02:30:22.813Z,37.20
2019-02-28T02:32:50.903Z,40.00
2019-02-28T02:35:19.563Z,38.53
2019-02-28T02:37:48.417Z,37.83
2019-02-28T02:40:16.779Z,36.27
2019-02-28T02:42:48.921Z,38.00
2019-02-28T02:45:15.312Z,38.03
2019-02-28T02:47:43.495Z,36.67
2019-02-28T02:50:12.852Z,35.83
2019-02-28T02:52:41.120Z,38.07
2019-02-28T02:55:09.323Z,37.80
2019-02-28T02:57:37.379Z,37.37
2019-02-28T03:00:13.677Z,37.13
2019-02-28T03:02:40.194Z,38.63
2019-02-28T03:05:08.383Z,37.27
2019-02-28T03:07:36.511Z,40.13
2019-02-28T03:10:06.007Z,37.70
2019-02-28T03:12:34.142Z,39.77
2019-02-28T03:15:02.390Z,38.70
2019-02-28T03:17:30.500Z,37.80
2019-02-28T03:19:58.567Z,39.97
2019-02-28T03:22:29.897Z,38.77
2019-02-28T03:24:56.675Z,39.20
2019-02-28T03:27:24.789Z,39.03
2019-02-28T03:29:52.895Z,38.23
2019-02-28T03:32:20.988Z,39.47
2019-02-28T03:34:57.923Z,39.20
2019-02-28T03:37:20.113Z,40.77
2019-02-28T03:39:48.383Z,38.73
2019-02-28T03:42:16.450Z,38.70
2019-02-28T03:44:44.733Z,39.80
2019-02-28T03:47:12.829Z,40.40
2019-02-28T03:49:48.381Z,40.27
2019-02-28T03:52:11.161Z,38.00
2019-02-28T03:54:39.556Z,40.90
2019-02-28T03:57:07.646Z,41.13
2019-02-28T03:59:35.735Z,38.57
2019-02-28T04:02:04.081Z,37.00
2019-02-28T04:04:32.208Z,38.73
2019-02-28T04:07:00.284Z,40.33
2019-02-28T04:09:28.378Z,40.57
2019-02-28T04:11:56.457Z,42.40
2019-02-28T04:14:28.494Z,41.97
2019-02-28T04:16:54.878Z,41.53
2019-02-28T04:19:23.222Z,39.50
2019-02-28T04:21:51.619Z,40.87
2019-02-28T04:24:19.758Z,42.47
2019-02-28T04:26:47.826Z,42.13
2019-02-28T04:29:15.955Z,41.83
2019-02-28T04:31:44.058Z,43.00
2019-02-28T04:34:13.415Z,42.57
2019-02-28T04:36:42.444Z,42.23
2019-02-28T04:39:10.807Z,43.57
2019-02-28T04:41:39.227Z,42.13
2019-02-28T04:44:07.892Z,45.53
2019-02-28T04:46:36.035Z,42.83
2019-02-28T04:49:04.145Z,44.97
2019-02-28T04:51:32.415Z,44.90
2019-02-28T04:54:00.684Z,44.43
2019-02-28T04:56:29.168Z,44.13
2019-02-28T04:58:59.566Z,44.67
2019-02-28T05:01:27.246Z,45.93
2019-02-28T05:03:55.305Z,44.27
2019-02-28T05:06:23.441Z,46.13
2019-02-28T05:08:51.605Z,44.57
2019-02-28T05:11:19.878Z,46.80
2019-02-28T05:13:48.711Z,46.93
2019-02-28T05:16:17.550Z,45.97
2019-02-28T05:18:45.823Z,45.57
2019-02-28T05:21:16.606Z,46.07
2019-02-28T05:23:45.024Z,46.97
2019-02-28T05:26:13.114Z,44.47
2019-02-28T05:28:41.456Z,45.97
2019-02-28T05:31:09.632Z,46.17
2019-02-28T05:33:38.385Z,46.37
2019-02-28T05:36:08.115Z,46.67
2019-02-28T05:38:36.198Z,48.60
2019-02-28T05:41:04.422Z,46.73
2019-02-28T05:43:32.919Z,47.10
2019-02-28T05:46:01.332Z,49.97
2019-02-28T05:48:29.802Z,47.33
2019-02-28T05:50:58.032Z,49.40
2019-02-28T05:53:26.343Z,49.90
2019-02-28T05:55:59.000Z,49.10
2019-02-28T05:58:24.567Z,50.63
2019-02-28T06:00:52.652Z,49.57
2019-02-28T06:03:20.749Z,51.67
2019-02-28T06:05:48.881Z,50.27
2019-02-28T06:08:17.909Z,50.10
2019-02-28T06:10:46.647Z,51.27
2019-02-28T06:13:15.351Z,53.57
2019-02-28T06:15:44.946Z,50.43
2019-02-28T06:18:13.032Z,49.80
2019-02-28T06:20:41.347Z,51.53
2019-02-28T06:23:10.165Z,50.77
2019-02-28T06:25:38.747Z,51.17
2019-02-28T06:28:06.896Z,51.53
2019-02-28T06:30:35.018Z,49.87
2019-02-28T06:33:03.144Z,50.30
2019-02-28T06:35:31.440Z,50.40
2019-02-28T06:37:59.520Z,51.97
2019-02-28T06:40:32.566Z,51.70
2019-02-28T06:42:58.063Z,51.03
2019-02-28T06:45:26.600Z,52.57
2019-02-28T06:47:54.698Z,53.57
2019-02-28T06:50:22.749Z,51.10
2019-02-28T06:52:50.847Z,51.60
2019-02-28T06:55:22.204Z,51.87
2019-02-28T06:57:51.167Z,52.20
2019-02-28T07:00:19.752Z,53.23
2019-02-28T07:02:49.971Z,52.07
2019-02-28T07:05:17.944Z,51.43
2019-02-28T07:07:49.071Z,53.80
2019-02-28T07:10:16.812Z,50.73
2019-02-28T07:12:44.914Z,50.33
2019-02-28T07:15:14.197Z,53.60
2019-02-28T07:17:42.723Z,54.17
2019-02-28T07:20:13.252Z,52.80
2019-02-28T07:22:41.428Z,52.30
2019-02-28T07:25:12.797Z,50.90
2019-02-28T07:27:39.737Z,53.07
2019-02-28T07:30:17.462Z,56.13
2019-02-28T07:32:42.049Z,52.53
2019-02-28T07:35:10.318Z,51.87
2019-02-28T07:37:38.577Z,51.80
2019-02-28T07:40:08.757Z,52.60
2019-02-28T07:42:37.596Z,53.33
2019-02-28T07:45:07.820Z,53.83
2019-02-28T07:47:36.028Z,53.90
2019-02-28T07:50:07.643Z,55.27
2019-02-28T07:52:35.380Z,51.80
2019-02-28T07:55:04.517Z,48.60
2019-02-28T07:57:32.590Z,52.27
2019-02-28T08:00:00.799Z,55.00
2019-02-28T08:02:28.891Z,52.37
2019-02-28T08:04:57.005Z,53.40
2019-02-28T08:07:25.270Z,51.47
2019-02-28T08:09:53.780Z,51.17
2019-02-28T08:12:21.992Z,52.93
2019-02-28T08:14:50.365Z,47.90
2019-02-28T08:17:18.730Z,53.03
2019-02-28T08:19:46.799Z,54.70
2019-02-28T08:22:15.242Z,54.90
2019-02-28T08:24:43.355Z,54.47
2019-02-28T08:27:11.568Z,52.67
2019-02-28T08:29:44.755Z,54.13
2019-02-28T08:32:09.734Z,55.03
2019-02-28T08:34:39.302Z,52.33
2019-02-28T08:37:07.456Z,53.80
2019-02-28T08:39:35.545Z,53.93
2019-02-28T08:42:04.852Z,47.90
2019-02-28T08:44:33.205Z,53.87
2019-02-28T08:47:01.319Z,55.43
2019-02-28T08:49:29.455Z,53.27
2019-02-28T08:51:57.556Z,54.57
2019-02-28T08:54:27.358Z,49.77
2019-02-28T08:56:55.785Z,51.07
2019-02-28T08:59:23.859Z,54.93
2019-02-28T09:01:52.402Z,53.00
2019-02-28T09:04:20.492Z,53.57
2019-02-28T09:06:48.913Z,53.53
2019-02-28T09:09:17.072Z,55.60
2019-02-28T09:11:45.918Z,54.43
2019-02-28T09:14:17.848Z,57.50
2019-02-28T09:16:44.864Z,43.80
2019-02-28T09:19:13.112Z,52.53
2019-02-28T09:21:41.338Z,53.43
2019-02-28T09:24:12.558Z,54.80
2019-02-28T09:26:40.167Z,53.30
2019-02-28T09:29:08.387Z,56.30
2019-02-28T09:31:39.181Z,54.53
2019-02-28T09:34:09.191Z,53.80
2019-02-28T09:36:37.667Z,55.67
2019-02-28T09:39:07.877Z,51.20
2019-02-28T09:41:36.385Z,49.20
2019-02-28T09:44:07.086Z,44.07
2019-02-28T09:46:35.556Z,50.27
2019-02-28T09:49:05.599Z,51.53
2019-02-28T09:51:36.411Z,48.87
2019-02-28T09:54:04.493Z,49.30
2019-02-28T09:56:32.627Z,46.83
2019-02-28T09:59:03.120Z,49.17
2019-02-28T10:01:31.832Z,47.63
2019-02-28T10:04:00.272Z,46.50
2019-02-28T10:06:28.376Z,47.70
2019-02-28T10:08:56.476Z,47.17
2019-02-28T10:11:24.789Z,44.70
2019-02-28T10:13:54.089Z,45.50
2019-02-28T10:16:22.843Z,39.60
2019-02-28T10:18:51.280Z,45.27
2019-02-28T10:21:19.418Z,48.27
2019-02-28T10:23:47.951Z,46.33
2019-02-28T10:26:17.218Z,48.37
2019-02-28T10:28:46.516Z,46.07
2019-02-28T10:31:14.948Z,50.90
2019-02-28T10:33:44.034Z,49.43
2019-02-28T10:36:13.024Z,44.97
2019-02-28T10:38:42.232Z,48.63
2019-02-28T10:41:10.901Z,45.60
2019-02-28T10:43:39.081Z,45.93
2019-02-28T10:46:07.615Z,48.47
2019-02-28T10:48:41.821Z,48.90
2019-02-28T10:51:12.357Z,45.00
2019-02-28T10:53:39.330Z,45.90
2019-02-28T10:56:06.720Z,45.90
2019-02-28T10:58:35.363Z,47.73
2019-02-28T11:01:08.678Z,46.20
2019-02-28T11:03:36.194Z,46.17
2019-02-28T11:06:04.592Z,40.30
2019-02-28T11:08:32.945Z,40.93
2019-02-28T11:11:01.047Z,44.80
2019-02-28T11:13:32.115Z,42.17
2019-02-28T11:15:59.196Z,41.93
2019-02-28T11:18:27.335Z,41.93
2019-02-28T11:20:58.243Z,40.47
2019-02-28T11:23:33.026Z,39.89
2019-02-28T11:26:01.865Z,38.70
2019-02-28T11:28:30.272Z,39.97
2019-02-28T11:30:59.029Z,39.40
2019-02-28T11:33:27.244Z,39.27
2019-02-28T11:35:59.031Z,36.93
2019-02-28T11:38:25.440Z,38.97
2019-02-28T11:40:57.329Z,39.87
2019-02-28T11:43:23.893Z,38.40
2019-02-28T11:45:52.399Z,38.20
2019-02-28T11:48:20.929Z,39.33
2019-02-28T11:50:49.088Z,38.03
2019-02-28T11:53:19.032Z,37.90
2019-02-28T11:55:47.341Z,35.40
2019-02-28T11:58:17.711Z,35.13
2019-02-28T12:00:45.549Z,36.07
2019-02-28T12:03:13.647Z,36.07
2019-02-28T12:05:41.800Z,37.43
2019-02-28T12:08:10.699Z,36.13
2019-02-28T12:10:39.066Z,36.80
2019-02-28T12:13:07.666Z,36.93
2019-02-28T12:15:38.163Z,38.40
2019-02-28T12:18:05.909Z,42.00
2019-02-28T12:20:35.020Z,40.70
2019-02-28T12:23:03.245Z,42.40
2019-02-28T12:25:31.465Z,43.93
2019-02-28T12:28:02.826Z,41.20
2019-02-28T12:30:29.734Z,40.40
2019-02-28T12:32:57.890Z,37.00
2019-02-28T12:35:26.007Z,34.00
2019-02-28T12:37:55.043Z,36.80
2019-02-28T12:40:26.336Z,34.57
2019-02-28T12:42:55.072Z,33.67
2019-02-28T12:45:32.342Z,34.47
2019-02-28T12:48:00.486Z,35.30
2019-02-28T12:50:30.242Z,36.03
2019-02-28T12:52:58.614Z,37.83
2019-02-28T12:55:26.768Z,38.20
2019-02-28T12:57:57.691Z,35.33
2019-02-28T13:00:31.647Z,35.80
2019-02-28T13:02:59.802Z,35.93
2019-02-28T13:05:28.340Z,35.53
2019-02-28T13:07:56.463Z,37.63
2019-02-28T13:10:28.084Z,36.60
2019-02-28T13:13:05.781Z,37.57
2019-02-28T13:15:24.978Z,37.40
2019-02-28T13:17:53.090Z,37.23
2019-02-28T13:20:22.187Z,39.00
2019-02-28T13:22:50.417Z,39.30
2019-02-28T13:25:19.365Z,39.83
2019-02-28T13:27:50.236Z,38.03
2019-02-28T13:30:21.323Z,38.53
2019-02-28T13:32:49.762Z,38.37
2019-02-28T13:35:24.554Z,38.13
2019-02-28T13:37:52.715Z,39.83
2019-02-28T13:40:22.215Z,37.70
2019-02-28T13:42:50.700Z,38.07
2019-02-28T13:45:23.148Z,37.57
2019-02-28T13:47:49.149Z,34.03
2019-02-28T13:50:22.156Z,35.60
2019-02-28T13:52:52.437Z,34.27
2019-02-28T13:55:20.259Z,36.43
2019-02-28T13:57:48.398Z,39.00
2019-02-28T14:00:25.122Z,37.63
2019-02-28T14:02:56.029Z,37.43
2019-02-28T14:05:24.238Z,36.30
2019-02-28T14:07:52.638Z,36.50
2019-02-28T14:10:22.453Z,34.47
2019-02-28T14:12:53.199Z,34.20
2019-02-28T14:15:25.462Z,34.77
2019-02-28T14:17:53.754Z,35.43
2019-02-28T14:20:24.421Z,34.93
2019-02-28T14:22:51.996Z,35.57
2019-02-28T14:25:20.876Z,35.53
2019-02-28T14:27:49.089Z,35.63
2019-02-28T14:30:19.707Z,34.47
2019-02-28T14:32:47.949Z,37.47
2019-02-28T14:35:18.043Z,35.97
2019-02-28T14:37:46.164Z,35.33
2019-02-28T14:40:14.594Z,38.13
2019-02-28T14:42:44.420Z,37.20
2019-02-28T14:45:14.280Z,41.37
2019-02-28T14:47:43.096Z,37.83
2019-02-28T14:50:12.233Z,38.97
2019-02-28T14:52:41.664Z,37.57
2019-02-28T14:55:13.968Z,36.67
2019-02-28T14:57:42.070Z,34.93
2019-02-28T15:00:16.130Z,35.87
2019-02-28T15:02:44.253Z,33.63
2019-02-28T15:05:12.717Z,34.73
2019-02-28T15:07:42.110Z,33.60
2019-02-28T15:10:13.640Z,35.30
2019-02-28T15:12:41.862Z,33.97
2019-02-28T15:15:14.812Z,34.67
2019-02-28T15:17:44.216Z,34.50
2019-02-28T15:20:13.506Z,34.13
2019-02-28T15:22:41.997Z,34.07
2019-02-28T15:25:15.234Z,33.50
2019-02-28T15:27:42.965Z,35.23
2019-02-28T15:30:17.625Z,34.47
2019-02-28T15:32:45.877Z,33.77
2019-02-28T15:35:16.016Z,35.17
2019-02-28T15:37:44.109Z,34.60
2019-02-28T15:40:21.567Z,36.03
2019-02-28T15:42:49.444Z,34.80
2019-02-28T15:45:17.932Z,35.07
2019-02-28T15:47:46.078Z,36.17
2019-02-28T15:50:16.362Z,36.57
2019-02-28T15:52:45.015Z,34.60
2019-02-28T15:55:14.423Z,36.57
2019-02-28T15:57:42.834Z,35.83
2019-02-28T16:00:22.091Z,36.10
2019-02-28T16:02:51.190Z,36.03
2019-02-28T16:05:19.859Z,34.57
2019-02-28T16:07:50.430Z,36.17
2019-02-28T16:10:20.863Z,38.77
2019-02-28T16:12:50.135Z,37.67
2019-02-28T16:15:19.139Z,36.27
2019-02-28T16:17:47.263Z,38.60
2019-02-28T16:20:15.722Z,37.83
2019-02-28T16:22:43.954Z,37.97
2019-02-28T16:25:17.507Z,36.23
2019-02-28T16:27:45.735Z,37.33
2019-02-28T16:30:15.026Z,36.93
2019-02-28T16:32:45.618Z,40.50
2019-02-28T16:35:14.621Z,39.43
2019-02-28T16:37:43.677Z,38.83
2019-02-28T16:40:13.930Z,39.67
2019-02-28T16:42:43.432Z,38.50
2019-02-28T16:45:40.546Z,39.43
2019-02-28T16:48:07.932Z,38.10
2019-02-28T16:50:36.135Z,38.37
2019-02-28T16:53:04.782Z,38.27
2019-02-28T16:55:32.962Z,38.30
2019-02-28T16:58:01.045Z,37.17
2019-02-28T17:00:29.358Z,40.17
2019-02-28T17:02:57.825Z,40.30
2019-02-28T17:05:28.001Z,39.10
2019-02-28T17:07:56.395Z,39.23
2019-02-28T17:10:30.298Z,39.67
2019-02-28T17:13:17.983Z,39.03
2019-02-28T17:16:04.251Z,38.30
2019-02-28T17:18:33.393Z,38.93
2019-02-28T17:21:01.863Z,39.00
2019-02-28T17:23:29.925Z,40.90
2019-02-28T17:25:58.153Z,39.33
2019-02-28T17:28:49.930Z,39.30
2019-02-28T17:31:51.848Z,41.27
2019-02-28T17:34:23.740Z,39.53
2019-02-28T17:36:51.091Z,39.40
2019-02-28T17:39:19.186Z,40.63
2019-02-28T17:41:47.404Z,40.37
2019-02-28T17:45:01.978Z,43.10
2019-02-28T17:48:31.965Z,39.07
2019-02-28T17:51:18.294Z,41.53
2019-02-28T17:54:12.240Z,41.03
2019-02-28T17:57:48.809Z,42.30
2019-02-28T18:01:28.764Z,43.10
2019-02-28T18:05:00.297Z,41.57
2019-02-28T18:08:08.311Z,39.10
2019-02-28T18:11:35.110Z,48.38
2019-02-28T18:14:52.382Z,45.17
2019-02-28T18:18:10.808Z,47.17
2019-02-28T18:21:37.514Z,44.57
2019-02-28T18:24:57.337Z,44.87
2019-02-28T18:28:07.177Z,43.20
2019-02-28T18:31:05.046Z,43.67
2019-02-28T18:33:33.531Z,44.07
2019-02-28T18:36:05.066Z,45.73
2019-02-28T18:38:35.740Z,43.97
2019-02-28T18:41:05.668Z,44.47
2019-02-28T18:43:32.507Z,47.30
2019-02-28T18:46:00.678Z,47.23
2019-02-28T18:48:28.796Z,47.23
2019-02-28T18:50:56.991Z,49.10
2019-02-28T18:53:25.183Z,47.47
2019-02-28T18:55:53.454Z,46.33
2019-02-28T18:58:21.635Z,43.67
2019-02-28T19:00:50.134Z,44.03
2019-02-28T19:03:18.241Z,42.87
2019-02-28T19:05:46.456Z,44.03
2019-02-28T19:08:14.766Z,44.13
2019-02-28T19:10:43.623Z,43.05
2019-02-28T19:13:11.746Z,40.63
2019-02-28T19:15:39.859Z,40.00
2019-02-28T19:18:08.031Z,42.87
2019-02-28T19:20:36.280Z,44.73
2019-02-28T19:23:04.468Z,42.93
2019-02-28T19:25:32.982Z,45.33
2019-02-28T19:28:02.122Z,43.97
2019-02-28T19:30:30.368Z,44.13
2019-02-28T19:32:58.494Z,45.93
2019-02-28T19:35:26.594Z,46.70
2019-02-28T19:37:54.683Z,44.23
2019-02-28T19:40:23.103Z,45.50
2019-02-28T19:42:51.193Z,45.23
2019-02-28T19:45:33.973Z,45.90
2019-02-28T19:48:02.034Z,45.40
2019-02-28T19:50:30.096Z,45.83
2019-02-28T19:53:01.533Z,44.53
2019-02-28T19:55:29.681Z,44.17
2019-02-28T19:57:57.879Z,43.57
2019-02-28T20:00:26.128Z,44.17
2019-02-28T20:02:54.221Z,41.10
2019-02-28T20:05:22.437Z,40.90
2019-02-28T20:07:50.871Z,41.53
2019-02-28T20:10:19.200Z,40.10
2019-02-28T20:12:47.321Z,39.83
2019-02-28T20:15:15.824Z,38.40
2019-02-28T20:17:44.178Z,38.90
2019-02-28T20:20:14.938Z,40.73
2019-02-28T20:22:43.246Z,38.40
2019-02-28T20:25:12.828Z,39.03
2019-02-28T20:27:41.045Z,35.30
2019-02-28T20:30:12.841Z,38.40
2019-02-28T20:32:41.348Z,38.07
2019-02-28T20:35:09.999Z,38.00
2019-02-28T20:37:38.166Z,37.47
2019-02-28T20:40:09.545Z,38.83
2019-02-28T20:42:38.325Z,37.90
2019-02-28T20:45:13.979Z,40.17
2019-02-28T20:47:43.075Z,40.13
2019-02-28T20:50:25.550Z,41.93
2019-02-28T20:52:53.602Z,43.07
2019-02-28T20:55:21.888Z,43.97
2019-02-28T20:57:50.338Z,45.77
2019-02-28T21:00:20.420Z,45.97
2019-02-28T21:02:48.605Z,44.43
2019-02-28T21:05:17.768Z,52.40
2019-02-28T21:07:46.022Z,51.90
2019-02-28T21:10:14.150Z,46.40
2019-02-28T21:12:42.254Z,44.63
2019-02-28T21:15:10.661Z,41.50
2019-02-28T21:17:38.809Z,42.03
2019-02-28T21:20:08.781Z,41.27
2019-02-28T21:22:36.915Z,42.77
2019-02-28T21:25:08.049Z,42.80
2019-02-28T21:27:36.238Z,40.10
2019-02-28T21:30:25.257Z,42.77
2019-02-28T21:32:53.427Z,42.43
2019-02-28T21:35:22.063Z,42.40
2019-02-28T21:37:50.583Z,41.73
2019-02-28T21:40:18.970Z,40.17
2019-02-28T21:42:47.113Z,44.37
2019-02-28T21:45:17.153Z,43.20
2019-02-28T21:47:45.313Z,42.70
2019-02-28T21:50:14.921Z,44.77
2019-02-28T21:52:44.041Z,44.17
2019-02-28T21:55:12.873Z,43.43
2019-02-28T21:57:41.285Z,44.13
2019-02-28T22:00:16.621Z,41.07
2019-02-28T22:02:45.401Z,43.13
2019-02-28T22:05:13.602Z,43.40
2019-02-28T22:07:41.840Z,42.43
2019-02-28T22:10:11.352Z,44.40
2019-02-28T22:12:39.521Z,45.17
2019-02-28T22:15:14.276Z,46.10
2019-02-28T22:17:45.988Z,48.23
2019-02-28T22:20:14.744Z,47.50
2019-02-28T22:22:42.843Z,46.00
2019-02-28T22:25:12.309Z,48.07
2019-02-28T22:27:40.454Z,48.27
2019-02-28T22:30:34.546Z,50.30
2019-02-28T22:33:04.394Z,50.20
2019-02-28T22:35:36.104Z,47.83
2019-02-28T22:38:04.695Z,51.33
2019-02-28T22:40:32.845Z,50.83
2019-02-28T22:43:00.989Z,50.17
2019-02-28T22:45:29.186Z,49.77
2019-02-28T22:47:57.272Z,50.27
2019-02-28T22:50:25.697Z,48.10
2019-02-28T22:52:55.033Z,50.03
2019-02-28T22:55:23.134Z,50.73
2019-02-28T22:57:51.253Z,52.07
2019-02-28T23:00:51.722Z,52.07
2019-02-28T23:03:20.116Z,53.10
2019-02-28T23:05:48.215Z,51.07
2019-02-28T23:08:18.148Z,51.63
2019-02-28T23:10:46.342Z,49.43
2019-02-28T23:13:14.473Z,49.13
2019-02-28T23:15:42.636Z,50.00
2019-02-28T23:18:10.822Z,50.43
2019-02-28T23:20:39.130Z,51.07
2019-02-28T23:23:09.033Z,53.10
2019-02-28T23:25:37.137Z,52.87
2019-02-28T23:28:10.122Z,51.03
2019-02-28T23:31:23.435Z,51.03
2019-02-28T23:34:01.075Z,49.67
2019-02-28T23:36:23.310Z,50.03
2019-02-28T23:38:51.567Z,51.90
2019-02-28T23:41:19.657Z,52.30
2019-02-28T23:43:48.768Z,53.13
2019-02-28T23:46:17.397Z,51.53
2019-02-28T23:48:45.521Z,53.07
2019-02-28T23:51:15.461Z,53.17
2019-02-28T23:53:43.593Z,51.10
2019-02-28T23:56:11.672Z,53.20
2019-02-28T23:58:39.762Z,53.83
